首页
METAR-TAF:

METAR-TAF

机场 :

阿克拉, 加纳

科托卡国际机场

纬度: 05-36N, 经度: 000-10W, 海拔: 68米

当前天气观测

该预报发布于1小时和4分钟前的21:00 UTC
风速10节,风向西南
温度 27°C
湿度 89%
气压 1012 hPa
能見度: 7000
少量云层高于1100英尺

METAR: DGAA 172100Z 22010KT 7000 FEW011 27/25 Q1012 NOSIG

时间: 22:04 (22:04 UTC)

预报

该预报发布于5小时和4分钟前的17:00 UTC
预报有效从17日的 18点(UTC)到 18日的 24点(UTC)
风速10节,风向西转西南
能見度: 8000
成为
从 18日的 02点(UTC)到 18日的 04点(UTC)
风速5节,风向西
成为
从 18日的 06点(UTC)到 18日的 08点(UTC)
能見度: 3000
轻雾
从 点(UTC)
风速15节,风向
能見度: 5000
少量云层高于3000英尺

TAF: DGAA 171700Z 1718/1824 24010KT 8000 NSC BECMG 1802/1804 27005KT BECMG 1806/1808 3000 BR FM 181200 19015KT 5000 HZ FEW030

超过4000个机场的气象观测和天气预报(METAR&TAF报告)。

可查询的气象台以黄色和红色小点在地图上表示。

将鼠标移到小点上方,可查看气象台名称。

然后点击查看天气观测和预报。

如需切换地图:点击带黑十字的绿色按钮放大地图;点击带横线的绿色按钮缩小地图;或者点击绿色箭头查看邻近地区的地图。


METAR-TAF: